createdAt,value
2023-04-29T00:10:04.931Z,10.4
2023-04-29T00:40:11.263Z,10.2
2023-04-29T01:20:20.872Z,9.9
2023-04-29T01:50:28.019Z,9.4
2023-04-29T02:10:33.034Z,9.2
2023-04-29T02:20:35.341Z,9.2
2023-04-29T02:30:37.520Z,9.1
2023-04-29T02:40:40.004Z,9.1
2023-04-29T02:50:42.607Z,9.1
2023-04-29T03:00:44.478Z,9.1
2023-04-29T03:10:46.588Z,9
2023-04-29T03:20:48.363Z,9
2023-04-29T03:30:50.220Z,8.9
2023-04-29T03:40:52.448Z,9
2023-04-29T03:50:54.618Z,8.9
2023-04-29T04:00:56.693Z,8.9
2023-04-29T04:10:58.548Z,8.9
2023-04-29T04:21:01.177Z,8.9
2023-04-29T04:41:05.462Z,9
2023-04-29T05:01:10.087Z,8.9
2023-04-29T05:11:12.332Z,9
2023-04-29T05:21:16.038Z,9
2023-04-29T05:31:16.537Z,9
2023-04-29T05:41:19.105Z,9
2023-04-29T06:01:22.877Z,9.1
2023-04-29T06:21:27.132Z,9
2023-04-29T06:31:29.694Z,8.8
2023-04-29T06:51:33.884Z,8.7
2023-04-29T07:01:36.307Z,8.7
2023-04-29T07:11:38.143Z,8.8
2023-04-29T07:21:39.890Z,8.8
2023-04-29T07:31:42.323Z,8.8
2023-04-29T07:41:44.514Z,8.8
2023-04-29T07:51:47.123Z,8.9
2023-04-29T08:01:49.688Z,8.9
2023-04-29T08:11:52.255Z,9.1
2023-04-29T08:21:54.917Z,9.3
2023-04-29T08:31:57.318Z,9.4
2023-04-29T08:41:59.527Z,9.5
2023-04-29T08:52:01.590Z,9.8
2023-04-29T09:02:03.673Z,9.9
2023-04-29T09:12:06.137Z,10
2023-04-29T09:22:08.392Z,10.1
2023-04-29T09:32:10.303Z,10.5
2023-04-29T09:52:14.847Z,10.9
2023-04-29T10:02:16.965Z,11.3
2023-04-29T10:22:21.201Z,11.4
2023-04-29T10:32:23.724Z,11.9
2023-04-29T11:02:29.176Z,12.3
2023-04-29T11:22:33.570Z,13.7
2023-04-29T11:42:37.966Z,13.6
2023-04-29T12:02:42.728Z,13.5
2023-04-29T12:32:49.214Z,13.8
2023-04-29T12:42:51.110Z,13.7
2023-04-29T13:02:56.280Z,12.9
2023-04-29T13:12:58.070Z,13.3
2023-04-29T13:22:59.917Z,13.4
2023-04-29T13:33:09.563Z,13.6
2023-04-29T13:43:07.063Z,13.9
2023-04-29T14:03:08.157Z,13.9
2023-04-29T14:13:09.876Z,14.3
2023-04-29T14:23:11.656Z,14
2023-04-29T14:43:16.598Z,14.5
2023-04-29T14:53:19.085Z,15.7
2023-04-29T15:03:22.719Z,14.8
2023-04-29T15:23:25.734Z,14.3
2023-04-29T15:33:28.096Z,14.4
2023-04-29T15:43:30.250Z,14.1
2023-04-29T15:53:31.934Z,14.1
2023-04-29T16:03:34.431Z,13.9
2023-04-29T16:13:36.763Z,14
2023-04-29T16:23:39.216Z,14.1
2023-04-29T16:33:41.530Z,13.9
2023-04-29T16:43:43.766Z,13.8
2023-04-29T16:53:45.817Z,13.7
2023-04-29T17:13:50.762Z,13.4
2023-04-29T17:23:52.575Z,13.3
2023-04-29T17:33:55.087Z,13.3
2023-04-29T17:53:59.293Z,13.2
2023-04-29T18:14:03.124Z,13.2
2023-04-29T18:24:05.286Z,12.9
2023-04-29T18:34:07.413Z,12.4
2023-04-29T18:44:10.000Z,11.7
2023-04-29T18:54:11.978Z,11
2023-04-29T19:04:13.839Z,10.2
2023-04-29T19:14:16.000Z,9.7
2023-04-29T19:24:18.147Z,9.3
2023-04-29T19:34:20.092Z,9.1
2023-04-29T19:44:22.037Z,8.6
2023-04-29T19:54:23.768Z,8.4
2023-04-29T20:04:25.585Z,8.2
2023-04-29T20:14:27.919Z,8.1
2023-04-29T20:24:30.226Z,7.9
2023-04-29T20:34:32.263Z,7.7
2023-04-29T20:44:34.580Z,7.3
2023-04-29T20:54:36.857Z,6.9
2023-04-29T21:04:46.445Z,6.8
2023-04-29T21:14:48.532Z,6.4
2023-04-29T21:24:50.523Z,6.2
2023-04-29T21:34:53.146Z,6.2
2023-04-29T21:44:55.228Z,6.5
2023-04-29T21:54:56.919Z,6.5
2023-04-29T22:04:58.922Z,7.1
2023-04-29T22:15:01.469Z,7.6
2023-04-29T22:25:03.648Z,7.5
2023-04-29T22:35:06.283Z,7.4
2023-04-29T22:45:08.444Z,7.5
2023-04-29T23:05:12.712Z,6.8
2023-04-29T23:15:14.381Z,6.3
2023-04-29T23:25:16.358Z,5.9
2023-04-29T23:35:18.493Z,5.5
2023-04-29T23:55:23.600Z,5.6
